Time;durP1;ratioP1;P1;durP2;ratioP2;P2;SDS_P1;SDS_P2;PMS_P1;PMS_P2;Temp;Humidity;BMP_temperature;BMP_pressure;BME280_temperature;BME280_humidity;BME280_pressure;Samples;Min_cycle;Max_cycle;Signal;HPM_P1;HPM_P2
2023/06/13 00:00:14;;;;;;;7.18;5.38;;;;;;;19.04;50.61;98828.38;5011768;28;20049;-82
2023/06/13 00:02:39;;;;;;;8.55;6.07;;;;;;;19.13;50.36;98818.41;5007265;28;20151;-82
2023/06/13 00:05:17;;;;;;;6.55;5.88;;;;;;;19.29;50.05;98821.56;5008026;28;20160;-82
2023/06/13 00:07:44;;;;;;;6.57;5.90;;;;;;;19.21;50.15;98811.47;5007334;28;20032;-82
2023/06/13 00:10:09;;;;;;;8.80;6.88;;;;;;;19.12;50.45;98807.88;5006130;28;20057;-82
2023/06/13 00:12:38;;;;;;;6.18;5.57;;;;;;;19.07;50.41;98808.81;5000955;28;20057;-82
2023/06/13 00:15:05;;;;;;;6.63;5.40;;;;;;;19.05;50.49;98811.00;5005725;28;20563;-82
2023/06/13 00:17:31;;;;;;;8.40;5.97;;;;;;;19.07;50.56;98811.50;5003532;28;20131;-82
2023/06/13 00:19:59;;;;;;;8.35;6.30;;;;;;;18.99;50.86;98811.44;4990598;28;20044;-82
2023/06/13 00:22:25;;;;;;;6.60;5.72;;;;;;;19.02;50.71;98819.75;5006243;28;20034;-82
2023/06/13 00:24:51;;;;;;;8.00;6.18;;;;;;;19.07;51.01;98818.81;5011090;28;20037;-82
2023/06/13 00:27:17;;;;;;;7.68;5.82;;;;;;;19.13;50.20;98799.47;5015323;28;20033;-82
2023/06/13 00:29:42;;;;;;;10.02;6.28;;;;;;;19.09;50.48;98813.94;5012185;28;20133;-82
2023/06/13 00:32:09;;;;;;;10.98;6.40;;;;;;;18.27;53.23;98813.94;5015925;28;20064;-82
2023/06/13 00:34:35;;;;;;;9.55;6.65;;;;;;;17.71;53.54;98808.72;5009720;28;20018;-81
2023/06/13 00:37:02;;;;;;;13.38;6.82;;;;;;;17.85;54.29;98803.38;5009922;28;20029;-82
2023/06/13 00:39:27;;;;;;;8.15;7.35;;;;;;;16.54;57.37;98813.34;4992569;28;20040;-82
2023/06/13 00:41:53;;;;;;;8.57;6.88;;;;;;;15.86;59.54;98812.69;5019068;28;20063;-81
2023/06/13 00:44:18;;;;;;;10.68;6.43;;;;;;;16.39;57.38;98811.63;5011527;28;20108;-81
2023/06/13 00:46:45;;;;;;;10.50;6.78;;;;;;;17.60;54.39;98814.59;5014330;28;20021;-82
2023/06/13 00:49:11;;;;;;;9.40;5.50;;;;;;;17.80;53.35;98801.56;5014173;28;20409;-82
2023/06/13 00:51:40;;;;;;;6.72;5.95;;;;;;;18.17;52.38;98802.53;5012281;28;20034;-82
2023/06/13 00:54:07;;;;;;;8.25;5.47;;;;;;;18.41;51.67;98808.56;5012458;28;20494;-82
2023/06/13 00:56:34;;;;;;;9.05;6.22;;;;;;;17.42;54.70;98802.69;5009804;28;20482;-82
2023/06/13 00:59:01;;;;;;;6.50;5.75;;;;;;;18.07;52.97;98802.69;4977968;28;20041;-82
2023/06/13 01:01:27;;;;;;;7.60;5.68;;;;;;;18.39;52.08;98808.06;5008816;28;20072;-82
2023/06/13 01:03:55;;;;;;;8.90;5.85;;;;;;;18.37;51.95;98804.84;5007250;28;20104;-82
2023/06/13 01:06:24;;;;;;;9.05;6.30;;;;;;;18.38;51.56;98803.75;5021556;28;20030;-82
2023/06/13 01:08:50;;;;;;;6.68;5.80;;;;;;;18.25;52.02;98802.66;4996876;28;20105;-82
2023/06/13 01:11:23;;;;;;;8.27;6.10;;;;;;;17.91;52.99;98783.25;5008175;28;20036;-82
2023/06/13 01:13:56;;;;;;;6.65;5.93;;;;;;;18.18;52.34;98804.13;5014244;28;20358;-81
2023/06/13 01:16:33;;;;;;;6.60;5.90;;;;;;;18.15;52.02;98785.81;5005568;28;20056;-82
2023/06/13 01:19:00;;;;;;;7.70;6.15;;;;;;;17.88;52.86;98806.28;5011313;28;20490;-82
2023/06/13 01:21:26;;;;;;;6.55;5.82;;;;;;;18.20;52.27;98801.91;5010951;28;20022;-82
2023/06/13 01:24:00;;;;;;;6.05;5.15;;;;;;;18.12;52.17;98803.44;5006049;28;20056;-82
2023/06/13 01:26:46;;;;;;;6.57;5.55;;;;;;;18.13;51.80;98806.94;5012107;28;20034;-82
2023/06/13 01:29:15;;;;;;;5.78;4.93;;;;;;;18.28;51.86;98799.31;5011844;28;20044;-82
2023/06/13 01:31:43;;;;;;;6.95;5.60;;;;;;;18.23;51.54;98802.16;4993626;28;20045;-82
2023/06/13 01:34:09;;;;;;;13.50;6.10;;;;;;;18.14;51.96;98798.53;5008821;28;20037;-82
2023/06/13 01:36:35;;;;;;;9.38;6.55;;;;;;;18.29;52.14;98810.94;5006603;28;20121;-82
2023/06/13 01:39:02;;;;;;;7.18;4.97;;;;;;;18.15;52.17;98810.13;4996956;28;20034;-82
2023/06/13 01:41:27;;;;;;;8.90;5.90;;;;;;;17.96;52.10;98802.91;4993669;28;20042;-82
2023/06/13 01:43:52;;;;;;;7.07;5.68;;;;;;;18.05;52.44;98805.72;4989172;28;20049;-82
2023/06/13 01:46:40;;;;;;;8.45;6.20;;;;;;;18.06;52.40;98811.91;5009013;28;20040;-82
2023/06/13 01:49:24;;;;;;;7.57;5.78;;;;;;;18.10;52.12;98802.13;5009529;28;20177;-82
2023/06/13 01:52:04;;;;;;;6.68;6.07;;;;;;;17.93;52.21;98800.78;5009951;28;20033;-82
2023/06/13 01:54:35;;;;;;;8.77;5.47;;;;;;;17.93;52.08;98800.78;5012690;28;20089;-82
2023/06/13 01:57:05;;;;;;;6.90;5.35;;;;;;;17.78;52.01;98801.03;4990179;28;20510;-82
2023/06/13 01:59:32;;;;;;;8.43;6.40;;;;;;;17.88;52.34;98809.00;5007654;28;20045;-82
2023/06/13 02:01:58;;;;;;;6.57;5.43;;;;;;;17.83;52.66;98803.66;5005190;28;20037;-82
2023/06/13 02:04:24;;;;;;;8.40;6.47;;;;;;;17.71;52.49;98792.53;5011265;28;20173;-82
2023/06/13 02:06:49;;;;;;;6.82;6.00;;;;;;;17.76;52.80;98799.72;4990801;28;20117;-82
2023/06/13 02:09:14;;;;;;;7.85;6.03;;;;;;;17.78;52.90;98811.84;5008402;28;20144;-82
2023/06/13 02:11:40;;;;;;;7.68;6.03;;;;;;;17.76;52.50;98792.44;4990999;28;20053;-83
2023/06/13 02:14:08;;;;;;;6.70;5.63;;;;;;;17.69;52.66;98810.13;4996723;28;20375;-82
2023/06/13 02:16:34;;;;;;;7.53;6.47;;;;;;;17.71;52.83;98806.00;5008540;28;20030;-82
2023/06/13 02:19:00;;;;;;;10.68;6.78;;;;;;;16.45;56.71;98788.09;5009489;28;20029;-82
2023/06/13 02:21:27;;;;;;;8.13;6.93;;;;;;;15.79;58.03;98788.00;5007408;28;20029;-82
2023/06/13 02:23:52;;;;;;;7.30;6.07;;;;;;;15.64;58.79;98788.13;4991872;28;20026;-82
2023/06/13 02:26:19;;;;;;;10.13;6.43;;;;;;;16.24;56.88;98792.94;5009355;28;20029;-82
2023/06/13 02:28:45;;;;;;;7.82;6.90;;;;;;;16.73;55.25;98799.94;4987047;28;20490;-82
2023/06/13 02:31:11;;;;;;;10.57;6.93;;;;;;;16.52;56.41;98798.56;4992052;28;20554;-82
2023/06/13 02:33:38;;;;;;;8.45;6.63;;;;;;;16.55;55.59;98804.19;5005755;28;20027;-82
2023/06/13 02:36:04;;;;;;;7.43;6.53;;;;;;;16.18;57.00;98798.66;5008436;28;20482;-82
2023/06/13 02:38:30;;;;;;;9.35;6.88;;;;;;;16.15;57.54;98802.72;4995772;28;20030;-82
2023/06/13 02:40:55;;;;;;;11.73;7.03;;;;;;;15.34;59.77;98812.53;4994464;28;20414;-82
2023/06/13 02:43:21;;;;;;;7.07;6.38;;;;;;;16.55;55.79;98803.38;5009021;28;20112;-82
2023/06/13 02:45:46;;;;;;;7.53;6.70;;;;;;;16.05;57.37;98796.63;5012182;28;20145;-82
2023/06/13 02:48:12;;;;;;;6.05;5.45;;;;;;;16.65;55.10;98804.06;4977155;28;20037;-82
2023/06/13 02:50:37;;;;;;;7.70;5.45;;;;;;;15.99;57.13;98803.94;4988884;28;20136;-82
2023/06/13 02:53:03;;;;;;;9.27;6.40;;;;;;;16.29;55.98;98802.84;5008759;28;20037;-82
2023/06/13 02:55:29;;;;;;;8.05;5.88;;;;;;;16.43;55.83;98806.44;4995854;28;20026;-82
2023/06/13 02:57:55;;;;;;;7.00;6.25;;;;;;;16.90;54.82;98811.03;5012675;28;20045;-82
2023/06/13 03:00:20;;;;;;;8.23;5.85;;;;;;;16.85;54.30;98801.09;5008536;28;20053;-82
2023/06/13 03:02:46;;;;;;;8.50;5.78;;;;;;;16.96;54.15;98802.56;4998324;28;20121;-82
2023/06/13 03:05:16;;;;;;;8.68;6.82;;;;;;;16.34;55.72;98797.38;5007750;28;20136;-82
2023/06/13 03:07:46;;;;;;;8.10;5.85;;;;;;;16.94;54.68;98802.06;5004374;28;20026;-82
2023/06/13 03:10:13;;;;;;;7.28;5.88;;;;;;;17.10;54.01;98806.13;5001039;28;20038;-82
2023/06/13 03:12:39;;;;;;;8.43;6.70;;;;;;;16.83;54.50;98808.69;4999280;28;20053;-81
2023/06/13 03:15:06;;;;;;;8.02;5.85;;;;;;;16.67;55.20;98801.88;5002707;28;20034;-81
2023/06/13 03:17:32;;;;;;;8.48;6.25;;;;;;;16.95;54.29;98808.25;5006884;28;20026;-81
2023/06/13 03:19:57;;;;;;;7.35;6.25;;;;;;;16.98;54.07;98804.97;5006356;28;20061;-81
2023/06/13 03:22:23;;;;;;;7.78;5.70;;;;;;;17.06;54.14;98815.91;5006827;28;20065;-81
2023/06/13 03:24:48;;;;;;;7.22;5.47;;;;;;;17.00;54.16;98806.28;4993294;28;20532;-81
2023/06/13 03:27:13;;;;;;;8.40;6.35;;;;;;;16.95;54.47;98802.88;5021837;28;20073;-81
2023/06/13 03:29:40;;;;;;;10.00;7.05;;;;;;;16.96;54.36;98804.47;5014261;28;20018;-81
2023/06/13 03:32:07;;;;;;;8.10;6.45;;;;;;;17.07;53.87;98805.94;5012228;28;20097;-82
2023/06/13 03:34:37;;;;;;;8.95;6.30;;;;;;;17.05;54.14;98810.81;5008073;28;20132;-81
2023/06/13 03:37:05;;;;;;;7.95;6.65;;;;;;;16.95;53.86;98798.25;5011167;28;20041;-81
2023/06/13 03:39:30;;;;;;;8.48;5.85;;;;;;;16.90;54.39;98797.53;4992419;28;20022;-82
2023/06/13 03:41:55;;;;;;;6.45;5.75;;;;;;;16.95;54.49;98808.25;5006882;28;20393;-82
2023/06/13 03:44:21;;;;;;;6.95;5.85;;;;;;;16.92;54.62;98809.63;4996837;28;20025;-81
2023/06/13 03:46:46;;;;;;;7.53;6.82;;;;;;;16.77;54.76;98809.84;5008232;28;20041;-81
2023/06/13 03:49:12;;;;;;;11.30;6.82;;;;;;;16.74;55.15;98812.28;5014842;28;20096;-81
2023/06/13 03:51:37;;;;;;;9.38;6.90;;;;;;;16.59;55.64;98807.09;5006410;28;20042;-82
2023/06/13 03:54:03;;;;;;;6.38;5.70;;;;;;;16.79;54.73;98802.28;4992152;28;20038;-82
2023/06/13 03:56:28;;;;;;;6.50;5.68;;;;;;;16.62;55.83;98810.00;5012031;28;20029;-82
2023/06/13 03:58:53;;;;;;;7.43;6.72;;;;;;;15.91;58.07;98815.34;4992444;28;20129;-82
2023/06/13 04:01:19;;;;;;;6.78;5.78;;;;;;;16.72;55.30;98809.91;4979309;28;20137;-82
2023/06/13 04:03:46;;;;;;;10.02;6.65;;;;;;;16.56;56.20;98813.84;5007089;28;20030;-82
2023/06/13 04:06:11;;;;;;;8.55;6.53;;;;;;;16.47;57.56;98823.63;5010034;28;20037;-82
2023/06/13 04:08:37;;;;;;;7.07;6.38;;;;;;;16.22;56.80;98805.06;5006034;28;20081;-82
2023/06/13 04:11:02;;;;;;;7.93;5.80;;;;;;;16.24;57.10;98814.47;5024972;28;20044;-82
2023/06/13 04:13:28;;;;;;;8.85;6.45;;;;;;;15.83;60.35;98817.84;5009779;28;20498;-82
2023/06/13 04:15:53;;;;;;;8.18;6.45;;;;;;;16.36;57.57;98814.88;4993312;28;20076;-82
2023/06/13 04:18:21;;;;;;;7.72;6.70;;;;;;;16.02;61.74;98814.16;5012636;28;20042;-82
2023/06/13 04:20:46;;;;;;;9.23;6.97;;;;;;;15.69;62.59;98823.06;4994125;28;20022;-82
2023/06/13 04:23:13;;;;;;;9.05;7.00;;;;;;;15.48;63.71;98811.69;5013399;28;20633;-82
2023/06/13 04:25:39;;;;;;;9.73;7.57;;;;;;;15.38;65.79;98833.22;5016498;28;20057;-81
2023/06/13 04:28:06;;;;;;;10.23;7.30;;;;;;;15.31;65.41;98835.41;4993407;28;20034;-80
2023/06/13 04:30:31;;;;;;;9.60;7.10;;;;;;;15.38;65.42;98833.22;5009068;28;20037;-80
2023/06/13 04:32:57;;;;;;;13.70;7.07;;;;;;;15.57;64.60;98825.34;4992516;28;20060;-80
2023/06/13 04:35:23;;;;;;;10.20;7.45;;;;;;;15.64;64.21;98828.47;5005547;28;20057;-80
2023/06/13 04:37:48;;;;;;;9.32;7.05;;;;;;;15.71;64.89;98810.94;5006758;28;21665;-80
2023/06/13 04:40:16;;;;;;;10.40;8.38;;;;;;;15.86;64.34;98814.59;5010139;28;20037;-81
2023/06/13 04:42:47;;;;;;;9.07;7.70;;;;;;;16.20;62.89;98834.19;5006162;28;20029;-82
2023/06/13 04:45:13;;;;;;;11.65;7.50;;;;;;;16.23;62.53;98830.91;5008791;28;20637;-82
2023/06/13 04:47:39;;;;;;;16.25;8.88;;;;;;;16.52;62.35;98823.63;5012466;28;20046;-82
2023/06/13 04:50:06;;;;;;;10.75;8.85;;;;;;;16.75;62.64;98832.78;5006035;28;20057;-82
2023/06/13 04:52:35;;;;;;;10.68;7.13;;;;;;;17.15;59.24;98826.84;5009189;28;20033;-80
2023/06/13 04:55:02;;;;;;;9.68;8.02;;;;;;;17.23;62.98;98828.91;5009529;28;20100;-82
2023/06/13 04:57:28;;;;;;;10.57;8.65;;;;;;;16.78;62.94;98827.59;5010710;28;20022;-81
2023/06/13 04:59:55;;;;;;;11.68;8.55;;;;;;;16.92;61.87;98825.81;4993222;28;20034;-81
2023/06/13 05:02:22;;;;;;;10.10;8.02;;;;;;;16.93;61.27;98840.06;5016855;28;20029;-81
2023/06/13 05:04:48;;;;;;;9.18;8.25;;;;;;;16.90;61.91;98832.59;5007419;28;20017;-81
2023/06/13 05:07:15;;;;;;;12.77;7.65;;;;;;;16.98;62.41;98840.03;5007276;28;20030;-81
2023/06/13 05:09:43;;;;;;;12.77;8.05;;;;;;;17.30;61.96;98834.72;4990539;28;20034;-82
2023/06/13 05:12:08;;;;;;;12.55;8.23;;;;;;;17.83;61.57;98827.97;5017377;28;20394;-82
2023/06/13 05:14:34;;;;;;;11.35;8.27;;;;;;;17.29;62.79;98830.44;5010171;28;20037;-81
2023/06/13 05:17:05;;;;;;;12.07;8.13;;;;;;;17.05;63.02;98837.78;5013812;28;20437;-80
2023/06/13 05:19:32;;;;;;;9.95;8.10;;;;;;;17.07;62.35;98825.59;5008710;28;20049;-81
2023/06/13 05:22:00;;;;;;;12.00;8.55;;;;;;;16.82;63.67;98825.94;5007607;28;20038;-82
2023/06/13 05:24:25;;;;;;;11.95;8.48;;;;;;;16.70;64.25;98836.34;5012107;28;20072;-83
2023/06/13 05:26:51;;;;;;;14.95;8.45;;;;;;;16.44;63.45;98830.41;5028216;28;20034;-82
2023/06/13 05:29:16;;;;;;;11.27;8.23;;;;;;;16.66;63.97;98826.41;4988741;28;20040;-81
2023/06/13 05:31:42;;;;;;;10.95;8.15;;;;;;;16.61;64.05;98829.97;5008466;28;20030;-81
2023/06/13 05:34:07;;;;;;;15.13;8.13;;;;;;;16.92;64.38;98836.59;5003820;28;20040;-81
2023/06/13 05:36:32;;;;;;;13.07;9.48;;;;;;;16.44;64.76;98833.13;5008546;28;20034;-81
2023/06/13 05:39:00;;;;;;;10.20;8.75;;;;;;;16.61;64.11;98821.09;4976338;28;20534;-81
2023/06/13 05:41:25;;;;;;;14.57;9.10;;;;;;;16.55;65.24;98836.53;5002657;28;20029;-82
2023/06/13 05:43:53;;;;;;;10.93;9.27;;;;;;;16.69;63.80;98833.91;5001408;28;20030;-81
2023/06/13 05:46:18;;;;;;;13.55;8.48;;;;;;;17.09;63.22;98828.00;5009234;28;20030;-82
2023/06/13 05:48:44;;;;;;;13.38;8.95;;;;;;;17.18;63.04;98829.78;5002282;28;20060;-83
2023/06/13 05:51:10;;;;;;;13.18;8.63;;;;;;;17.47;63.39;98818.00;5010493;28;20076;-82
2023/06/13 05:53:35;;;;;;;27.23;9.48;;;;;;;17.31;62.04;98830.13;5011127;28;20050;-82
2023/06/13 05:56:00;;;;;;;11.15;8.73;;;;;;;17.06;63.53;98826.69;5003440;28;20099;-82
2023/06/13 05:58:26;;;;;;;11.95;8.80;;;;;;;16.90;62.97;98829.88;5004032;28;20033;-82
2023/06/13 06:00:52;;;;;;;12.02;9.02;;;;;;;17.09;63.12;98820.72;5008907;28;20847;-82
2023/06/13 06:03:18;;;;;;;17.80;9.45;;;;;;;17.29;63.50;98830.44;4968388;28;20036;-82
2023/06/13 06:05:44;;;;;;;13.70;9.60;;;;;;;17.29;62.04;98825.03;4991763;28;20381;-82
2023/06/13 06:08:09;;;;;;;14.15;9.77;;;;;;;17.11;62.46;98834.72;5004909;28;20030;-82
2023/06/13 06:10:35;;;;;;;14.80;9.52;;;;;;;16.89;62.12;98821.00;4988790;28;20716;-82
2023/06/13 06:13:00;;;;;;;11.70;8.60;;;;;;;17.28;63.39;98830.72;5006469;28;20042;-81
2023/06/13 06:15:26;;;;;;;18.83;9.77;;;;;;;17.09;62.51;98836.09;4987608;28;20061;-83
2023/06/13 06:17:51;;;;;;;19.50;10.00;;;;;;;16.91;62.37;98834.97;5006374;28;20037;-82
2023/06/13 06:20:17;;;;;;;14.75;9.60;;;;;;;16.92;62.83;98836.59;4990711;28;20026;-82
2023/06/13 06:22:42;;;;;;;20.80;10.10;;;;;;;17.25;62.97;98832.88;5011165;28;20029;-82
2023/06/13 06:25:11;;;;;;;13.98;9.85;;;;;;;17.23;64.13;98837.00;4994774;28;20048;-82
2023/06/13 06:27:37;;;;;;;24.92;8.57;;;;;;;17.53;62.85;98825.78;5028089;28;20437;-82
2023/06/13 06:30:04;;;;;;;12.88;8.02;;;;;;;17.89;61.47;98834.06;5011073;28;20038;-82
2023/06/13 06:32:30;;;;;;;14.75;9.48;;;;;;;17.79;61.00;98828.84;4997294;28;20040;-82
2023/06/13 06:34:55;;;;;;;17.85;10.32;;;;;;;17.83;60.92;98811.78;5015101;28;20030;-82
2023/06/13 06:37:22;;;;;;;19.27;9.32;;;;;;;17.97;61.78;98828.78;5007693;28;20731;-81
2023/06/13 06:39:48;;;;;;;19.58;9.38;;;;;;;17.99;62.00;98836.63;4998461;28;20100;-82
2023/06/13 06:42:13;;;;;;;19.00;8.77;;;;;;;18.00;61.37;98823.91;5013977;28;20018;-82
2023/06/13 06:44:39;;;;;;;14.82;9.60;;;;;;;18.12;60.15;98821.53;5012629;28;20034;-81
2023/06/13 06:47:04;;;;;;;15.18;9.80;;;;;;;18.46;60.50;98832.78;5012636;28;20062;-82
2023/06/13 06:49:29;;;;;;;13.55;8.02;;;;;;;18.50;58.53;98836.53;5013399;28;20061;-82
2023/06/13 06:51:55;;;;;;;17.75;9.15;;;;;;;18.56;60.21;98835.31;4997084;28;20065;-82
2023/06/13 06:54:20;;;;;;;13.05;8.63;;;;;;;18.41;59.69;98827.47;5012922;28;20030;-82
2023/06/13 06:56:45;;;;;;;15.05;9.05;;;;;;;18.56;59.70;98825.31;5029935;28;20026;-82
2023/06/13 06:59:11;;;;;;;12.25;8.57;;;;;;;18.58;58.73;98833.13;5013305;28;20396;-82
2023/06/13 07:01:36;;;;;;;10.55;8.00;;;;;;;18.82;58.23;98835.59;4998182;28;20034;-82
2023/06/13 07:04:02;;;;;;;7.22;6.45;;;;;;;19.14;57.07;98824.63;4997084;28;20054;-82
2023/06/13 07:06:29;;;;;;;12.23;7.05;;;;;;;19.60;56.74;98837.94;4997696;28;20041;-82
2023/06/13 07:08:54;;;;;;;8.10;7.03;;;;;;;20.18;54.38;98836.72;4981640;28;20036;-82
2023/06/13 07:11:19;;;;;;;11.00;6.88;;;;;;;20.43;53.42;98832.56;5015300;28;20025;-81
2023/06/13 07:13:45;;;;;;;17.83;8.85;;;;;;;19.68;58.73;98842.63;4996364;28;20688;-82
2023/06/13 07:16:10;;;;;;;13.07;8.50;;;;;;;19.37;58.74;98818.19;4997443;28;20128;-82
2023/06/13 07:18:35;;;;;;;10.10;7.07;;;;;;;19.57;56.63;98835.84;4996835;28;20034;-82
2023/06/13 07:21:01;;;;;;;10.30;6.30;;;;;;;20.70;53.26;98823.41;4997818;28;20034;-82
2023/06/13 07:23:26;;;;;;;9.40;7.10;;;;;;;20.93;52.50;98830.34;4997552;28;20038;-82
2023/06/13 07:25:51;;;;;;;14.05;7.55;;;;;;;20.08;54.94;98828.88;5013860;28;20113;-82
2023/06/13 07:28:17;;;;;;;16.80;8.25;;;;;;;20.34;55.76;98826.31;5014179;28;20033;-82
2023/06/13 07:30:42;;;;;;;16.35;8.50;;;;;;;19.88;55.98;98832.09;4997380;28;20033;-82
2023/06/13 07:33:08;;;;;;;16.13;7.90;;;;;;;19.86;58.20;98834.31;5012532;28;20060;-82
2023/06/13 07:35:39;;;;;;;17.80;7.88;;;;;;;19.63;56.62;98821.09;5013808;28;20041;-82
2023/06/13 07:38:05;;;;;;;11.98;6.93;;;;;;;19.79;57.03;98822.31;5000078;28;20045;-82
2023/06/13 07:40:30;;;;;;;13.10;7.60;;;;;;;19.70;57.09;98805.22;4997323;28;20029;-81
2023/06/13 07:42:56;;;;;;;15.98;6.70;;;;;;;19.93;56.94;98809.50;4995651;28;20034;-81
2023/06/13 07:45:21;;;;;;;11.65;7.40;;;;;;;20.18;55.89;98820.47;4997021;28;20033;-81
2023/06/13 07:47:47;;;;;;;7.28;6.50;;;;;;;21.21;52.49;98822.75;5014564;28;20049;-82
2023/06/13 07:50:12;;;;;;;12.50;7.63;;;;;;;20.88;55.59;98811.50;4997115;28;20041;-82
2023/06/13 07:52:37;;;;;;;8.45;6.25;;;;;;;21.31;53.29;98817.00;4996860;28;20487;-82
2023/06/13 07:55:04;;;;;;;11.23;6.60;;;;;;;20.84;54.35;98821.38;4997152;28;20022;-82
2023/06/13 07:57:29;;;;;;;10.95;6.72;;;;;;;20.73;53.19;98807.31;5014306;28;20033;-82
2023/06/13 07:59:55;;;;;;;9.73;5.78;;;;;;;20.73;54.65;98796.44;5014487;28;20094;-82
2023/06/13 08:02:34;;;;;;;18.63;6.22;;;;;;;20.77;53.54;98805.56;5003640;28;20041;-82
2023/06/13 08:04:59;;;;;;;11.23;6.32;;;;;;;20.82;53.01;98804.59;4998633;28;20034;-82
2023/06/13 08:07:25;;;;;;;7.63;6.72;;;;;;;20.98;51.75;98816.63;4977341;28;20478;-82
2023/06/13 08:09:50;;;;;;;7.32;6.28;;;;;;;20.85;51.95;98793.94;4993323;28;20056;-81
2023/06/13 08:12:16;;;;;;;7.90;6.10;;;;;;;20.83;51.87;98798.88;4977079;28;20088;-81
2023/06/13 08:14:41;;;;;;;8.75;5.90;;;;;;;22.12;50.26;98793.44;4976528;28;20034;-82
2023/06/13 08:17:06;;;;;;;10.90;6.50;;;;;;;22.20;50.18;98798.84;4989068;28;20030;-82
2023/06/13 08:19:32;;;;;;;13.43;6.30;;;;;;;22.26;50.97;98792.09;4994610;28;20031;-81
2023/06/13 08:21:57;;;;;;;12.13;5.75;;;;;;;21.65;49.34;98792.53;4995515;28;20030;-81
2023/06/13 08:24:22;;;;;;;8.80;5.75;;;;;;;22.57;49.15;98804.59;5011720;28;20095;-82
2023/06/13 08:26:49;;;;;;;10.52;5.95;;;;;;;21.92;47.92;98802.28;5011382;28;20490;-82
2023/06/13 08:29:15;;;;;;;13.70;6.10;;;;;;;21.93;49.32;98790.28;4996950;28;20030;-82
2023/06/13 08:31:40;;;;;;;8.38;5.40;;;;;;;22.20;48.92;98795.31;5014271;28;20636;-82
2023/06/13 08:34:06;;;;;;;9.77;6.28;;;;;;;21.97;48.96;98788.53;4996636;28;20030;-82
2023/06/13 08:36:35;;;;;;;11.65;6.25;;;;;;;22.66;49.23;98794.50;5011646;28;20033;-82
2023/06/13 08:39:01;;;;;;;6.35;5.75;;;;;;;23.01;48.43;98793.97;5013637;28;20030;-82
2023/06/13 08:41:28;;;;;;;8.20;5.25;;;;;;;23.09;48.04;98786.84;4992253;28;20585;-82
2023/06/13 08:43:54;;;;;;;8.52;5.88;;;;;;;22.30;45.47;98795.75;4991517;28;20109;-82
2023/06/13 08:46:20;;;;;;;8.43;6.53;;;;;;;22.12;45.97;98785.28;4993364;28;20027;-82
2023/06/13 08:48:45;;;;;;;8.05;6.30;;;;;;;21.95;46.62;98785.34;4994657;28;20033;-82
2023/06/13 08:51:16;;;;;;;6.28;5.00;;;;;;;22.43;48.17;98785.78;4992704;28;20037;-82
2023/06/13 08:53:56;;;;;;;8.60;5.97;;;;;;;23.02;47.15;98778.44;4993838;28;20092;-81
2023/06/13 08:56:23;;;;;;;11.00;6.38;;;;;;;22.91;46.37;98775.28;4994938;28;20462;-82
2023/06/13 08:58:58;;;;;;;7.55;5.82;;;;;;;22.86;47.12;98769.25;4994495;28;20061;-82
2023/06/13 09:01:27;;;;;;;7.90;5.32;;;;;;;23.78;46.08;98770.75;4994237;28;20030;-82
2023/06/13 09:03:56;;;;;;;9.80;5.25;;;;;;;23.49;45.89;98779.84;4993256;28;20427;-83
2023/06/13 09:06:21;;;;;;;8.90;5.65;;;;;;;23.05;44.67;98775.03;5010852;28;20033;-83
2023/06/13 09:08:48;;;;;;;12.35;6.15;;;;;;;23.50;44.70;98767.78;5011175;28;20022;-83
2023/06/13 09:11:14;;;;;;;6.97;5.35;;;;;;;22.89;46.84;98758.47;4997514;28;20030;-83
2023/06/13 09:13:41;;;;;;;15.23;6.40;;;;;;;22.49;43.06;98770.88;4993431;28;20026;-83
2023/06/13 09:16:06;;;;;;;10.55;6.20;;;;;;;22.68;46.08;98759.59;4993667;28;20635;-82
2023/06/13 09:18:36;;;;;;;7.50;6.28;;;;;;;23.09;45.10;98771.31;4993701;28;20030;-83
2023/06/13 09:21:02;;;;;;;13.05;6.43;;;;;;;22.66;41.50;98759.94;4995065;28;20033;-83
2023/06/13 09:23:28;;;;;;;10.02;6.80;;;;;;;22.77;40.61;98766.59;4993928;28;20026;-83
2023/06/13 09:25:55;;;;;;;6.40;5.80;;;;;;;22.53;40.24;98744.59;5009616;28;20041;-83
2023/06/13 09:28:32;;;;;;;9.20;5.50;;;;;;;23.17;41.18;98758.78;4993570;28;20038;-83
2023/06/13 09:30:58;;;;;;;7.32;5.60;;;;;;;23.86;43.46;98761.66;4994050;28;20026;-83
2023/06/13 09:33:24;;;;;;;9.93;5.72;;;;;;;24.11;43.84;98759.81;4994737;28;20029;-83
2023/06/13 09:35:50;;;;;;;6.10;5.50;;;;;;;23.69;40.81;98751.75;4994658;28;20037;-83
2023/06/13 09:38:21;;;;;;;8.13;5.70;;;;;;;23.39;39.78;98753.00;4993769;28;20550;-83
2023/06/13 09:40:46;;;;;;;11.48;6.50;;;;;;;23.51;40.84;98741.34;4996117;28;20033;-83
2023/06/13 09:43:15;;;;;;;10.23;6.28;;;;;;;24.08;40.41;98746.84;5011275;28;20053;-83
2023/06/13 09:45:43;;;;;;;6.07;5.50;;;;;;;23.48;39.68;98737.34;5012897;28;20137;-83
2023/06/13 09:48:08;;;;;;;6.43;5.72;;;;;;;23.77;41.72;98747.31;5012865;28;20034;-83
2023/06/13 09:50:36;;;;;;;7.63;5.28;;;;;;;24.44;40.06;98738.69;4995119;28;20040;-83
2023/06/13 09:53:01;;;;;;;9.00;5.97;;;;;;;24.43;42.00;98728.91;5011061;28;20124;-83
2023/06/13 09:55:27;;;;;;;7.85;6.07;;;;;;;24.75;40.43;98730.72;5011400;28;20067;-83
2023/06/13 09:57:53;;;;;;;13.02;5.90;;;;;;;24.38;38.78;98729.94;5015309;28;20064;-83
2023/06/13 10:00:20;;;;;;;6.60;5.68;;;;;;;23.91;38.76;98717.03;5015481;28;20050;-83
2023/06/13 10:02:46;;;;;;;9.20;5.95;;;;;;;23.74;38.29;98698.94;5015452;28;20040;-83
2023/06/13 10:05:14;;;;;;;10.40;6.38;;;;;;;23.88;39.69;98717.69;5016815;28;20037;-83
2023/06/13 10:07:40;;;;;;;8.65;6.20;;;;;;;24.39;39.68;98687.88;5015866;28;20030;-83
2023/06/13 10:10:07;;;;;;;11.50;6.57;;;;;;;24.32;39.44;98704.00;5017043;28;20036;-83
2023/06/13 10:12:38;;;;;;;6.47;5.72;;;;;;;24.10;38.89;98701.75;5011808;28;20030;-83
2023/06/13 10:15:06;;;;;;;11.10;6.72;;;;;;;24.63;39.42;98697.97;5011742;28;20041;-83
2023/06/13 10:17:39;;;;;;;6.72;6.13;;;;;;;24.81;41.04;98696.59;5013656;28;20045;-83
2023/06/13 10:20:10;;;;;;;6.85;6.20;;;;;;;25.22;40.10;98693.50;5018873;28;20026;-83
2023/06/13 10:22:38;;;;;;;6.95;5.40;;;;;;;24.95;39.46;98690.72;5013632;28;20049;-83
2023/06/13 10:25:07;;;;;;;7.75;5.88;;;;;;;24.33;37.82;98691.94;5013730;28;20044;-83
2023/06/13 10:27:36;;;;;;;8.13;5.90;;;;;;;24.45;38.33;98691.97;5013128;28;20037;-83
2023/06/13 10:30:43;;;;;;;9.32;6.45;;;;;;;24.79;38.32;98690.66;4974491;28;20041;-83
2023/06/13 10:33:42;;;;;;;7.55;6.55;;;;;;;24.69;38.51;98682.94;5005439;28;20049;-83
2023/06/13 10:36:41;;;;;;;6.65;5.72;;;;;;;24.51;37.43;98701.50;5028902;28;20569;-83
2023/06/13 10:39:30;;;;;;;6.30;5.70;;;;;;;25.86;40.85;98696.00;5010863;28;20069;-83
2023/06/13 10:42:25;;;;;;;8.95;5.95;;;;;;;24.89;37.45;98695.66;5004383;28;20034;-83
2023/06/13 10:45:13;;;;;;;9.50;6.72;;;;;;;24.85;37.36;98677.56;5007798;28;20057;-83
2023/06/13 10:47:38;;;;;;;10.55;6.05;;;;;;;25.20;37.81;98689.50;5011135;28;20080;-83
2023/06/13 10:50:04;;;;;;;10.15;7.13;;;;;;;25.95;36.89;98682.94;5011373;28;20485;-83
2023/06/13 10:52:30;;;;;;;13.07;6.20;;;;;;;26.07;37.11;98684.81;5012109;28;20030;-83
2023/06/13 10:54:58;;;;;;;6.53;5.32;;;;;;;26.26;37.16;98675.88;5017315;28;20111;-83
2023/06/13 10:57:51;;;;;;;9.07;5.60;;;;;;;26.10;38.41;98675.94;5001595;28;20389;-83
2023/06/13 11:00:30;;;;;;;7.70;6.10;;;;;;;25.92;36.71;98683.66;5004373;28;20450;-83
2023/06/13 11:02:59;;;;;;;8.63;5.63;;;;;;;25.49;36.78;98677.44;5015312;28;20626;-83
2023/06/13 11:05:25;;;;;;;10.48;6.63;;;;;;;25.33;36.63;98674.66;5012407;28;20030;-83
2023/06/13 11:07:54;;;;;;;7.15;5.40;;;;;;;26.04;36.88;98677.28;5011468;28;20061;-83
2023/06/13 11:10:21;;;;;;;8.65;5.30;;;;;;;25.57;39.68;98674.56;5013383;28;20022;-83
2023/06/13 11:12:47;;;;;;;12.00;6.57;;;;;;;25.82;37.08;98672.44;5006929;28;20030;-83
2023/06/13 11:15:38;;;;;;;8.85;6.45;;;;;;;25.12;37.26;98671.31;5017286;28;20021;-83
2023/06/13 11:18:07;;;;;;;7.45;5.93;;;;;;;24.80;37.70;98667.69;5011262;28;20048;-83
2023/06/13 11:20:33;;;;;;;8.40;6.10;;;;;;;25.13;38.21;98670.19;5028394;28;20032;-83
2023/06/13 11:22:58;;;;;;;6.38;5.72;;;;;;;25.74;39.83;98665.22;5016946;28;20034;-83
2023/06/13 11:25:24;;;;;;;8.68;5.82;;;;;;;26.48;38.96;98662.34;5012887;28;20038;-83
2023/06/13 11:27:50;;;;;;;8.10;6.20;;;;;;;25.22;38.48;98659.91;5004809;28;20025;-82
2023/06/13 11:30:15;;;;;;;7.15;6.35;;;;;;;25.23;37.80;98656.81;5011987;28;20037;-83